createdAt,value
2024-04-18T00:01:18.830Z,29.17
2024-04-18T00:03:48.902Z,29.12
2024-04-18T00:06:18.580Z,29.20
2024-04-18T00:08:48.173Z,29.24
2024-04-18T00:11:17.808Z,29.25
2024-04-18T00:13:47.383Z,29.23
2024-04-18T00:16:16.958Z,29.30
2024-04-18T00:18:46.560Z,29.25
2024-04-18T00:21:16.176Z,29.29
2024-04-18T00:23:46.572Z,29.32
2024-04-18T00:26:16.216Z,29.34
2024-04-18T00:28:45.823Z,29.47
2024-04-18T00:31:15.497Z,29.29
2024-04-18T00:33:45.263Z,29.40
2024-04-18T00:36:14.906Z,29.33
2024-04-18T00:38:44.489Z,29.44
2024-04-18T00:41:14.090Z,29.47
2024-04-18T00:43:44.998Z,29.48
2024-04-18T00:46:14.733Z,29.49
2024-04-18T00:48:44.523Z,29.48
2024-04-18T00:51:14.255Z,29.50
2024-04-18T00:53:43.906Z,29.47
2024-04-18T00:56:16.050Z,29.44
2024-04-18T00:58:47.413Z,29.52
2024-04-18T01:01:17.247Z,29.42
2024-04-18T01:03:47.951Z,29.50
2024-04-18T01:06:17.635Z,29.46
2024-04-18T01:08:47.223Z,29.56
2024-04-18T01:11:16.880Z,29.59
2024-04-18T01:13:46.555Z,29.63
2024-04-18T01:16:16.264Z,29.63
2024-04-18T01:18:45.888Z,29.66
2024-04-18T01:21:15.485Z,29.68
2024-04-18T01:23:45.126Z,29.60
2024-04-18T01:26:14.805Z,29.70
2024-04-18T01:28:44.420Z,29.75
2024-04-18T01:31:13.989Z,29.73
2024-04-18T01:33:43.718Z,29.77
2024-04-18T01:36:13.384Z,29.70
2024-04-18T01:38:42.991Z,29.43
2024-04-18T01:41:13.385Z,29.28
2024-04-18T01:43:42.960Z,29.23
2024-04-18T01:46:12.601Z,29.20
2024-04-18T01:48:42.885Z,29.14
2024-04-18T01:51:12.550Z,29.19
2024-04-18T01:53:42.264Z,29.15
2024-04-18T01:56:11.842Z,29.05
2024-04-18T01:58:41.426Z,29.16
2024-04-18T02:01:11.130Z,29.16
2024-04-18T02:03:41.482Z,29.13
2024-04-18T02:06:11.284Z,29.03
2024-04-18T02:08:40.884Z,29.16
2024-04-18T02:11:10.489Z,29.11
2024-04-18T02:13:40.101Z,29.05
2024-04-18T02:16:09.693Z,29.10
2024-04-18T02:18:39.272Z,29.13
2024-04-18T02:21:08.924Z,28.99
2024-04-18T02:23:38.519Z,29.13
2024-04-18T02:26:08.315Z,29.07
2024-04-18T02:28:38.042Z,29.01
2024-04-18T02:31:07.872Z,29.10
2024-04-18T02:33:37.594Z,29.07
2024-04-18T02:36:08.165Z,29.06
2024-04-18T02:38:37.738Z,29.11
2024-04-18T02:41:08.453Z,29.00
2024-04-18T02:43:38.057Z,28.96
2024-04-18T02:46:08.297Z,29.00
2024-04-18T02:48:38.984Z,29.02
2024-04-18T02:51:10.611Z,28.93
2024-04-18T02:53:40.185Z,29.14
2024-04-18T02:56:09.898Z,29.11
2024-04-18T02:58:39.461Z,28.96
2024-04-18T03:01:09.081Z,29.00
2024-04-18T03:03:38.808Z,28.98
2024-04-18T03:06:09.010Z,29.04
2024-04-18T03:08:38.643Z,29.04
2024-04-18T03:11:08.469Z,29.13
2024-04-18T03:13:39.263Z,29.08
2024-04-18T03:16:09.616Z,28.99
2024-04-18T03:18:39.341Z,29.07
2024-04-18T03:21:09.000Z,29.01
2024-04-18T03:23:39.005Z,28.97
2024-04-18T03:26:08.646Z,28.96
2024-04-18T03:28:38.232Z,29.07
2024-04-18T03:31:07.980Z,28.99
2024-04-18T03:33:37.568Z,29.01
2024-04-18T03:36:07.918Z,29.01
2024-04-18T03:38:37.545Z,29.03
2024-04-18T03:41:07.235Z,29.01
2024-04-18T03:43:41.657Z,28.98
2024-04-18T03:46:11.254Z,28.96
2024-04-18T03:48:40.962Z,28.98
2024-04-18T03:51:10.550Z,29.04
2024-04-18T03:53:40.187Z,28.98
2024-04-18T03:56:09.761Z,29.10
2024-04-18T03:58:39.700Z,28.99
2024-04-18T04:01:09.332Z,29.00
2024-04-18T04:03:39.035Z,28.97
2024-04-18T04:06:09.037Z,29.01
2024-04-18T04:08:38.628Z,29.02
2024-04-18T04:11:08.318Z,28.95
2024-04-18T04:13:38.098Z,29.06
2024-04-18T04:16:08.861Z,28.92
2024-04-18T04:18:41.172Z,28.94
2024-04-18T04:21:14.053Z,28.95
2024-04-18T04:23:43.156Z,28.94
2024-04-18T04:26:12.754Z,29.05
2024-04-18T04:28:42.356Z,28.93
2024-04-18T04:31:11.992Z,28.89
2024-04-18T04:33:41.612Z,29.03
2024-04-18T04:36:11.455Z,29.00
2024-04-18T04:38:41.032Z,28.90
2024-04-18T04:41:10.668Z,29.08
2024-04-18T04:43:41.003Z,28.91
2024-04-18T04:46:10.832Z,29.10
2024-04-18T04:48:40.532Z,28.88
2024-04-18T04:51:10.208Z,29.00
2024-04-18T04:53:40.203Z,29.00
2024-04-18T04:56:10.198Z,28.98
2024-04-18T04:58:39.792Z,29.01
2024-04-18T05:01:09.469Z,29.13
2024-04-18T05:03:39.228Z,28.95
2024-04-18T05:06:09.435Z,28.75
2024-04-18T05:08:39.010Z,28.74
2024-04-18T05:11:08.600Z,28.62
2024-04-18T05:13:38.230Z,28.63
2024-04-18T05:16:08.590Z,28.62
2024-04-18T05:18:39.841Z,28.58
2024-04-18T05:21:09.410Z,28.80
2024-04-18T05:23:39.045Z,28.74
2024-04-18T05:26:08.618Z,28.81
2024-04-18T05:29:02.223Z,28.69
2024-04-18T05:31:31.847Z,28.76
2024-04-18T05:34:01.470Z,28.75
2024-04-18T05:36:31.143Z,28.76
2024-04-18T05:39:01.170Z,28.86
2024-04-18T05:41:30.767Z,28.92
2024-04-18T05:44:00.417Z,28.91
2024-04-18T05:46:30.039Z,28.94
2024-04-18T05:48:59.719Z,28.92
2024-04-18T05:51:29.383Z,28.95
2024-04-18T05:53:59.007Z,28.89
2024-04-18T05:56:28.678Z,29.06
2024-04-18T05:58:58.388Z,28.94
2024-04-18T06:01:28.034Z,29.07
2024-04-18T06:03:57.808Z,29.05
2024-04-18T06:06:27.884Z,29.00
2024-04-18T06:08:57.549Z,28.66
2024-04-18T06:11:36.543Z,28.59
2024-04-18T06:14:06.490Z,28.47
2024-04-18T06:16:37.435Z,28.50
2024-04-18T06:19:07.061Z,28.47
2024-04-18T06:21:36.641Z,28.58
2024-04-18T06:24:07.100Z,28.50
2024-04-18T06:26:36.744Z,28.54
2024-04-18T06:29:06.343Z,28.52
2024-04-18T06:31:35.927Z,28.48
2024-04-18T06:34:06.152Z,28.47
2024-04-18T06:36:36.163Z,28.39
2024-04-18T06:39:08.463Z,28.53
2024-04-18T06:41:38.053Z,28.49
2024-04-18T06:44:08.153Z,28.41
2024-04-18T06:46:48.701Z,28.50
2024-04-18T06:49:22.541Z,28.44
2024-04-18T06:51:52.198Z,28.45
2024-04-18T06:54:22.057Z,28.41
2024-04-18T06:56:51.717Z,28.48
2024-04-18T06:59:22.082Z,28.50
2024-04-18T07:01:51.670Z,28.36
2024-04-18T07:04:21.368Z,28.45
2024-04-18T07:06:51.091Z,28.42
2024-04-18T07:09:20.827Z,28.42
2024-04-18T07:11:50.498Z,28.46
2024-04-18T07:14:20.098Z,28.37
2024-04-18T07:16:49.834Z,28.40
2024-04-18T07:19:19.497Z,28.45
2024-04-18T07:21:49.149Z,28.50
2024-04-18T07:24:19.166Z,28.42
2024-04-18T07:26:49.257Z,28.41
2024-04-18T07:29:18.864Z,28.40
2024-04-18T07:31:48.489Z,28.39
2024-04-18T07:34:18.260Z,28.44
2024-04-18T07:36:48.511Z,28.40
2024-04-18T07:39:19.241Z,28.34
2024-04-18T07:41:48.906Z,28.49
2024-04-18T07:44:20.633Z,28.50
2024-04-18T07:46:51.565Z,28.53
2024-04-18T07:49:21.220Z,28.57
2024-04-18T07:51:51.536Z,28.55
2024-04-18T07:54:21.813Z,28.34
2024-04-18T07:56:51.855Z,28.33
2024-04-18T07:59:22.348Z,28.01
2024-04-18T08:01:53.661Z,27.95
2024-04-18T08:04:44.931Z,27.71
2024-04-18T08:07:15.376Z,27.59
2024-04-18T08:09:50.500Z,27.48
2024-04-18T08:12:27.218Z,27.23
2024-04-18T08:15:04.312Z,27.07
2024-04-18T08:17:37.703Z,26.98
2024-04-18T08:20:09.611Z,26.89
2024-04-18T08:22:39.293Z,26.75
2024-04-18T08:25:09.340Z,26.59
2024-04-18T08:27:38.960Z,26.53
2024-04-18T08:30:10.502Z,26.37
2024-04-18T08:32:40.399Z,26.28
2024-04-18T08:35:10.179Z,26.10
2024-04-18T08:37:40.700Z,25.92
2024-04-18T08:40:11.720Z,25.84
2024-04-18T08:42:41.328Z,25.91
2024-04-18T08:45:11.416Z,25.92
2024-04-18T08:47:41.094Z,25.85
2024-04-18T08:50:11.008Z,25.89
2024-04-18T08:52:40.661Z,25.98
2024-04-18T08:55:10.272Z,25.96
2024-04-18T08:57:44.859Z,25.90
2024-04-18T09:00:15.783Z,25.98
2024-04-18T09:02:45.730Z,25.97
2024-04-18T09:05:16.638Z,26.00
2024-04-18T09:07:46.201Z,25.90
2024-04-18T09:10:18.360Z,25.95
2024-04-18T09:12:48.097Z,25.92
2024-04-18T09:15:17.734Z,25.94
2024-04-18T09:17:47.442Z,26.02
2024-04-18T09:20:17.205Z,25.99
2024-04-18T09:22:46.796Z,25.87
2024-04-18T09:25:16.410Z,25.97
2024-04-18T09:27:46.031Z,26.03
2024-04-18T09:30:16.411Z,26.08
2024-04-18T09:32:46.136Z,26.03
2024-04-18T09:35:15.859Z,26.00
2024-04-18T09:37:52.767Z,26.16
2024-04-18T09:40:26.668Z,26.08
2024-04-18T09:42:59.137Z,26.20
2024-04-18T09:45:35.198Z,26.19
2024-04-18T09:48:05.552Z,26.22
2024-04-18T09:50:35.235Z,26.14
2024-04-18T09:53:05.211Z,26.33
2024-04-18T09:55:35.254Z,26.27
2024-04-18T09:58:06.284Z,26.33
2024-04-18T10:00:36.754Z,26.22
2024-04-18T10:03:07.214Z,26.40
2024-04-18T10:05:36.898Z,26.23
2024-04-18T10:08:07.734Z,26.28
2024-04-18T10:10:38.105Z,26.50
2024-04-18T10:13:07.861Z,26.38
2024-04-18T10:15:37.580Z,26.40
2024-04-18T10:18:16.414Z,26.45
2024-04-18T10:20:46.271Z,26.32
2024-04-18T10:23:16.801Z,26.48
2024-04-18T10:25:47.790Z,26.31
2024-04-18T10:28:26.112Z,26.50
2024-04-18T10:31:01.472Z,26.71
2024-04-18T10:33:31.423Z,26.42
2024-04-18T10:36:01.116Z,26.53
2024-04-18T10:38:32.387Z,26.48
2024-04-18T10:41:05.154Z,26.56
2024-04-18T10:43:36.063Z,26.51
2024-04-18T10:46:08.185Z,26.62
2024-04-18T10:48:38.199Z,26.55
2024-04-18T10:51:07.930Z,26.76
2024-04-18T10:53:39.393Z,26.78
2024-04-18T10:56:09.202Z,26.83
2024-04-18T10:58:39.042Z,26.94
2024-04-18T11:01:08.696Z,27.13
2024-04-18T11:03:38.393Z,27.35
2024-04-18T11:06:08.421Z,27.14
2024-04-18T11:08:38.149Z,27.01
2024-04-18T11:11:07.940Z,27.15
2024-04-18T11:13:37.851Z,27.19
2024-04-18T11:16:08.230Z,27.09
2024-04-18T11:18:37.990Z,27.08
2024-04-18T11:21:08.671Z,27.17
2024-04-18T11:23:44.636Z,27.22
2024-04-18T11:26:21.171Z,27.24
2024-04-18T11:28:52.249Z,27.28
2024-04-18T11:31:21.833Z,27.21
2024-04-18T11:33:51.979Z,27.28
2024-04-18T11:36:21.955Z,27.29
2024-04-18T11:38:51.899Z,27.24
2024-04-18T11:41:21.549Z,27.28
2024-04-18T11:43:51.170Z,27.31
2024-04-18T11:46:20.854Z,27.32
2024-04-18T11:48:50.690Z,27.34
2024-04-18T11:51:20.425Z,27.36
2024-04-18T11:53:50.398Z,27.37
2024-04-18T11:56:20.103Z,27.24
2024-04-18T11:58:50.201Z,27.30
2024-04-18T12:01:19.908Z,27.29
2024-04-18T12:03:49.660Z,27.45
2024-04-18T12:06:19.280Z,27.30
2024-04-18T12:08:53.237Z,27.50
2024-04-18T12:11:24.570Z,27.36
2024-04-18T12:13:55.013Z,27.31
2024-04-18T12:16:25.710Z,27.32
2024-04-18T12:18:55.353Z,27.35
2024-04-18T12:21:25.096Z,27.41
2024-04-18T12:23:54.705Z,27.35
2024-04-18T12:26:24.682Z,27.50
2024-04-18T12:28:54.264Z,27.64
2024-04-18T12:31:23.875Z,27.76
2024-04-18T12:33:53.586Z,27.96
2024-04-18T12:36:23.356Z,28.25
2024-04-18T12:38:53.000Z,28.21
2024-04-18T12:41:22.594Z,28.04
2024-04-18T12:43:52.194Z,28.08
2024-04-18T12:46:23.924Z,28.05
2024-04-18T12:48:54.972Z,28.13
2024-04-18T12:51:24.941Z,28.07
2024-04-18T12:53:56.755Z,28.03
2024-04-18T12:56:27.152Z,27.90
2024-04-18T12:58:56.726Z,27.82
2024-04-18T13:01:26.452Z,27.80
2024-04-18T13:03:56.851Z,27.80
2024-04-18T13:06:27.479Z,27.79
2024-04-18T13:08:57.551Z,27.84
2024-04-18T13:11:27.298Z,27.82
2024-04-18T13:13:57.463Z,27.84
2024-04-18T13:16:28.731Z,27.90
2024-04-18T13:18:58.339Z,27.79
2024-04-18T13:21:28.075Z,27.78
2024-04-18T13:23:57.681Z,27.75
2024-04-18T13:26:27.289Z,27.72
2024-04-18T13:28:56.960Z,27.70
2024-04-18T13:31:26.582Z,27.68
2024-04-18T13:33:57.550Z,27.71
2024-04-18T13:36:27.972Z,27.69
2024-04-18T13:38:58.492Z,27.58
2024-04-18T13:41:28.902Z,27.65
2024-04-18T13:43:58.521Z,27.58
2024-04-18T13:46:28.134Z,27.56
2024-04-18T13:48:57.860Z,27.51
2024-04-18T13:51:27.563Z,27.52
2024-04-18T13:53:57.274Z,27.48
2024-04-18T13:56:27.116Z,27.51
2024-04-18T13:58:56.809Z,27.43
2024-04-18T14:01:26.463Z,27.27
2024-04-18T14:03:56.300Z,27.34
2024-04-18T14:06:26.265Z,27.26
2024-04-18T14:08:55.984Z,27.06
2024-04-18T14:11:26.174Z,27.10
2024-04-18T14:13:55.788Z,26.93
2024-04-18T14:16:42.870Z,26.95
2024-04-18T14:19:16.568Z,26.94
2024-04-18T14:21:46.221Z,27.06
2024-04-18T14:24:15.901Z,26.98
2024-04-18T14:26:45.651Z,26.91
2024-04-18T14:29:15.259Z,26.80
2024-04-18T14:31:44.837Z,26.71
2024-04-18T14:34:14.646Z,26.61
2024-04-18T14:36:44.371Z,26.70
2024-04-18T14:39:14.083Z,26.68
2024-04-18T14:41:43.879Z,26.73
2024-04-18T14:44:13.594Z,26.72
2024-04-18T14:46:43.236Z,26.79
2024-04-18T14:49:15.595Z,26.82
2024-04-18T14:51:45.216Z,26.77
2024-04-18T14:54:14.945Z,26.72
2024-04-18T14:56:44.675Z,26.79
2024-04-18T14:59:14.294Z,26.93
2024-04-18T15:01:43.860Z,26.80
2024-04-18T15:04:13.639Z,26.88
2024-04-18T15:06:43.379Z,26.93
2024-04-18T15:09:12.984Z,26.77
2024-04-18T15:11:42.608Z,26.91
2024-04-18T15:14:12.217Z,26.87
2024-04-18T15:16:41.802Z,26.89
2024-04-18T15:19:11.504Z,26.87
2024-04-18T15:21:41.208Z,26.89
2024-04-18T15:24:11.572Z,26.87
2024-04-18T15:26:41.216Z,26.80
2024-04-18T15:29:10.808Z,26.80
2024-04-18T15:31:40.741Z,26.97
2024-04-18T15:34:10.346Z,26.89
2024-04-18T15:36:39.948Z,26.84
2024-04-18T15:39:10.865Z,26.79
2024-04-18T15:41:40.471Z,26.88
2024-04-18T15:44:10.272Z,26.71
2024-04-18T15:46:39.938Z,26.87
2024-04-18T15:49:09.686Z,26.79
2024-04-18T15:51:39.635Z,26.72
2024-04-18T15:54:09.296Z,26.73
2024-04-18T15:56:38.889Z,26.68
2024-04-18T15:59:08.489Z,26.75
2024-04-18T16:01:38.131Z,26.80
2024-04-18T16:04:07.922Z,26.78
2024-04-18T16:06:37.754Z,26.68
2024-04-18T16:09:07.439Z,26.76
2024-04-18T16:11:37.728Z,26.79
2024-04-18T16:14:07.315Z,26.79
2024-04-18T16:16:36.990Z,26.69
2024-04-18T16:19:06.674Z,26.77
2024-04-18T16:21:36.356Z,26.63
2024-04-18T16:24:08.158Z,26.82
2024-04-18T16:26:37.815Z,26.66
2024-04-18T16:29:08.012Z,26.76
2024-04-18T16:31:37.648Z,26.78
2024-04-18T16:34:07.266Z,26.69
2024-04-18T16:36:38.449Z,26.80
2024-04-18T16:39:11.537Z,26.82
2024-04-18T16:41:41.729Z,26.74
2024-04-18T16:44:11.517Z,26.69
2024-04-18T16:46:41.208Z,26.67
2024-04-18T16:49:10.859Z,26.70
2024-04-18T16:51:40.505Z,26.61
2024-04-18T16:54:10.185Z,26.55
2024-04-18T16:56:39.783Z,26.54
2024-04-18T16:59:10.807Z,26.61
2024-04-18T17:01:40.451Z,26.60
2024-04-18T17:04:10.126Z,26.55
2024-04-18T17:06:47.283Z,26.66
2024-04-18T17:09:18.693Z,26.62
2024-04-18T17:11:48.451Z,26.69
2024-04-18T17:14:18.218Z,26.44
2024-04-18T17:16:47.832Z,26.33
2024-04-18T17:19:17.504Z,26.26
2024-04-18T17:21:47.319Z,26.36
2024-04-18T17:24:16.988Z,26.34
2024-04-18T17:26:46.641Z,26.45
2024-04-18T17:29:16.250Z,26.45
2024-04-18T17:31:46.013Z,26.50
2024-04-18T17:34:15.718Z,26.60
2024-04-18T17:36:45.345Z,26.62
2024-04-18T17:39:15.019Z,26.93
2024-04-18T17:41:44.705Z,27.53
2024-04-18T17:44:14.344Z,28.09
2024-04-18T17:46:43.958Z,28.24
2024-04-18T17:49:13.659Z,28.21
2024-04-18T17:51:43.329Z,28.17
2024-04-18T17:54:13.032Z,28.16
2024-04-18T17:56:42.633Z,28.11
2024-04-18T17:59:12.829Z,28.06
2024-04-18T18:01:43.357Z,28.03
2024-04-18T18:04:13.650Z,27.99
2024-04-18T18:06:43.405Z,27.96
2024-04-18T18:09:13.019Z,27.88
2024-04-18T18:11:42.677Z,27.91
2024-04-18T18:14:12.273Z,27.84
2024-04-18T18:16:41.847Z,27.90
2024-04-18T18:19:11.546Z,27.87
2024-04-18T18:21:41.198Z,27.87
2024-04-18T18:24:11.037Z,27.82
2024-04-18T18:26:42.317Z,27.83
2024-04-18T18:29:11.924Z,27.83
2024-04-18T18:31:42.226Z,27.86
2024-04-18T18:34:15.313Z,27.83
2024-04-18T18:36:44.998Z,27.80
2024-04-18T18:39:14.710Z,27.93
2024-04-18T18:41:44.403Z,27.83
2024-04-18T18:44:14.084Z,27.77
2024-04-18T18:46:43.639Z,27.62
2024-04-18T18:49:13.355Z,27.58
2024-04-18T18:51:44.441Z,27.69
2024-04-18T18:54:14.209Z,27.60
2024-04-18T18:56:43.825Z,27.68
2024-04-18T18:59:13.430Z,27.68
2024-04-18T19:01:43.245Z,27.52
2024-04-18T19:04:12.982Z,27.58
2024-04-18T19:06:42.659Z,27.53
2024-04-18T19:09:12.433Z,27.65
2024-04-18T19:11:42.272Z,27.71
2024-04-18T19:14:11.912Z,27.79
2024-04-18T19:16:41.695Z,27.84
2024-04-18T19:19:11.342Z,27.85
2024-04-18T19:21:41.008Z,28.12
2024-04-18T19:24:10.988Z,28.17
2024-04-18T19:26:40.583Z,28.08
2024-04-18T19:29:10.255Z,28.30
2024-04-18T19:31:39.852Z,28.23
2024-04-18T19:34:09.570Z,28.26
2024-04-18T19:36:41.129Z,28.30
2024-04-18T19:39:11.093Z,28.45
2024-04-18T19:41:40.969Z,28.31
2024-04-18T19:44:10.562Z,28.16
2024-04-18T19:46:40.177Z,27.98
2024-04-18T19:49:11.965Z,28.05
2024-04-18T19:51:41.629Z,28.03
2024-04-18T19:54:11.645Z,27.99
2024-04-18T19:56:41.270Z,28.12
2024-04-18T19:59:10.879Z,28.08
2024-04-18T20:01:40.544Z,28.17
2024-04-18T20:04:10.317Z,28.19
2024-04-18T20:06:41.517Z,28.06
2024-04-18T20:09:11.156Z,28.20
2024-04-18T20:11:40.822Z,28.14
2024-04-18T20:14:10.485Z,28.27
2024-04-18T20:16:44.965Z,28.15
2024-04-18T20:19:14.898Z,28.16
2024-04-18T20:21:45.249Z,28.24
2024-04-18T20:24:16.222Z,28.25
2024-04-18T20:26:45.848Z,28.19
2024-04-18T20:29:16.622Z,28.24
2024-04-18T20:31:46.238Z,28.35
2024-04-18T20:34:15.897Z,28.31
2024-04-18T20:36:45.818Z,28.41
2024-04-18T20:39:15.463Z,28.41
2024-04-18T20:41:47.323Z,28.41
2024-04-18T20:44:16.944Z,28.47
2024-04-18T20:46:46.520Z,28.53
2024-04-18T20:49:16.292Z,28.52
2024-04-18T20:51:45.928Z,28.50
2024-04-18T20:54:15.545Z,28.64
2024-04-18T20:56:45.130Z,28.60
2024-04-18T20:59:15.506Z,28.60
2024-04-18T21:01:45.108Z,28.61
2024-04-18T21:04:16.592Z,28.72
2024-04-18T21:06:46.293Z,28.66
2024-04-18T21:09:15.975Z,28.78
2024-04-18T21:11:45.678Z,28.77
2024-04-18T21:14:15.321Z,28.74
2024-04-18T21:16:45.565Z,28.78
2024-04-18T21:19:19.532Z,28.76
2024-04-18T21:21:51.130Z,28.75
2024-04-18T21:24:20.810Z,28.78
2024-04-18T21:26:50.531Z,28.88
2024-04-18T21:29:20.128Z,28.81
2024-04-18T21:31:49.748Z,28.82
2024-04-18T21:34:19.763Z,28.86
2024-04-18T21:36:49.462Z,28.97
2024-04-18T21:39:19.122Z,28.78
2024-04-18T21:41:49.351Z,28.97
2024-04-18T21:44:19.011Z,28.92
2024-04-18T21:46:48.612Z,28.99
2024-04-18T21:49:18.264Z,29.04
2024-04-18T21:51:47.959Z,29.00
2024-04-18T21:54:17.603Z,28.99
2024-04-18T21:56:47.290Z,29.00
2024-04-18T21:59:16.937Z,29.04
2024-04-18T22:01:46.549Z,29.07
2024-04-18T22:04:16.447Z,29.13
2024-04-18T22:06:46.608Z,29.17
2024-04-18T22:09:16.328Z,29.16
2024-04-18T22:11:46.185Z,29.10
2024-04-18T22:14:15.899Z,29.21
2024-04-18T22:16:45.592Z,29.08
2024-04-18T22:19:15.321Z,29.14
2024-04-18T22:21:45.032Z,29.16
2024-04-18T22:24:14.794Z,29.21
2024-04-18T22:26:44.462Z,29.20
2024-04-18T22:29:14.185Z,29.25
2024-04-18T22:31:43.834Z,29.23
2024-04-18T22:34:24.634Z,29.19
2024-04-18T22:37:01.348Z,29.27
2024-04-18T22:39:31.034Z,29.24
2024-04-18T22:42:01.155Z,29.27
2024-04-18T22:44:30.770Z,29.24
2024-04-18T22:47:00.376Z,29.41
2024-04-18T22:49:30.190Z,29.26
2024-04-18T22:51:59.808Z,29.19
2024-04-18T22:54:29.560Z,29.32
2024-04-18T22:56:59.730Z,29.35
2024-04-18T22:59:29.464Z,29.36
2024-04-18T23:01:59.309Z,29.28
2024-04-18T23:04:29.074Z,29.30
2024-04-18T23:06:58.755Z,29.35
2024-04-18T23:09:28.506Z,29.30
2024-04-18T23:11:58.157Z,29.36
2024-04-18T23:14:27.748Z,29.42
2024-04-18T23:16:57.355Z,29.44
2024-04-18T23:19:26.998Z,29.46
2024-04-18T23:21:56.635Z,29.65
2024-04-18T23:24:26.315Z,29.61
2024-04-18T23:26:55.950Z,29.59
2024-04-18T23:29:29.393Z,29.60
2024-04-18T23:31:59.079Z,29.65
2024-04-18T23:34:28.683Z,29.65
2024-04-18T23:36:58.510Z,29.61
2024-04-18T23:39:28.886Z,29.75
2024-04-18T23:41:59.243Z,29.73
2024-04-18T23:44:28.835Z,29.78
2024-04-18T23:47:00.507Z,29.78
2024-04-18T23:49:30.123Z,29.76
2024-04-18T23:51:59.918Z,29.90
2024-04-18T23:54:29.709Z,29.84
2024-04-18T23:56:59.319Z,29.92
2024-04-18T23:59:29.734Z,29.78
